sensor_id;sensor_type;location;lat;lon;timestamp;P1;durP1;ratioP1;P2;durP2;ratioP2
56541;SDS011;42438;53.174;6.730;2022-09-25T00:02:05;5.22;;;1.88;;
56541;SDS011;42438;53.174;6.730;2022-09-25T00:04:36;5.50;;;2.53;;
56541;SDS011;42438;53.174;6.730;2022-09-25T00:07:07;9.65;;;2.40;;
56541;SDS011;42438;53.174;6.730;2022-09-25T00:09:37;5.75;;;1.73;;
56541;SDS011;42438;53.174;6.730;2022-09-25T00:12:08;7.00;;;2.38;;
56541;SDS011;42438;53.174;6.730;2022-09-25T00:14:39;6.00;;;1.80;;
56541;SDS011;42438;53.174;6.730;2022-09-25T00:17:10;6.40;;;2.08;;
56541;SDS011;42438;53.174;6.730;2022-09-25T00:19:40;10.60;;;2.75;;
56541;SDS011;42438;53.174;6.730;2022-09-25T00:22:21;7.68;;;2.38;;
56541;SDS011;42438;53.174;6.730;2022-09-25T00:24:53;6.95;;;2.53;;
56541;SDS011;42438;53.174;6.730;2022-09-25T00:27:24;4.93;;;1.80;;
56541;SDS011;42438;53.174;6.730;2022-09-25T00:29:55;3.85;;;1.90;;
56541;SDS011;42438;53.174;6.730;2022-09-25T00:32:26;8.45;;;2.10;;
56541;SDS011;42438;53.174;6.730;2022-09-25T00:34:56;5.00;;;1.98;;
56541;SDS011;42438;53.174;6.730;2022-09-25T00:37:27;5.15;;;1.92;;
56541;SDS011;42438;53.174;6.730;2022-09-25T00:39:58;5.82;;;2.72;;
56541;SDS011;42438;53.174;6.730;2022-09-25T00:42:29;8.30;;;2.40;;
56541;SDS011;42438;53.174;6.730;2022-09-25T00:45:17;6.90;;;2.30;;
56541;SDS011;42438;53.174;6.730;2022-09-25T00:47:51;6.05;;;2.00;;
56541;SDS011;42438;53.174;6.730;2022-09-25T00:53:21;7.80;;;1.98;;
56541;SDS011;42438;53.174;6.730;2022-09-25T00:55:55;7.25;;;1.92;;
56541;SDS011;42438;53.174;6.730;2022-09-25T00:58:28;7.00;;;2.50;;
56541;SDS011;42438;53.174;6.730;2022-09-25T01:01:02;8.88;;;2.20;;
56541;SDS011;42438;53.174;6.730;2022-09-25T01:03:33;5.80;;;1.90;;
56541;SDS011;42438;53.174;6.730;2022-09-25T01:06:04;7.70;;;2.10;;
56541;SDS011;42438;53.174;6.730;2022-09-25T01:08:35;8.27;;;2.28;;
56541;SDS011;42438;53.174;6.730;2022-09-25T01:11:08;6.03;;;2.10;;
56541;SDS011;42438;53.174;6.730;2022-09-25T01:13:39;4.93;;;1.48;;
56541;SDS011;42438;53.174;6.730;2022-09-25T01:16:12;5.05;;;1.80;;
56541;SDS011;42438;53.174;6.730;2022-09-25T01:19:21;8.35;;;3.20;;
56541;SDS011;42438;53.174;6.730;2022-09-25T01:30:48;6.18;;;1.85;;
56541;SDS011;42438;53.174;6.730;2022-09-25T01:33:23;7.70;;;1.95;;
56541;SDS011;42438;53.174;6.730;2022-09-25T01:36:10;8.40;;;1.80;;
56541;SDS011;42438;53.174;6.730;2022-09-25T01:38:51;8.80;;;2.03;;
56541;SDS011;42438;53.174;6.730;2022-09-25T01:41:39;7.07;;;1.90;;
56541;SDS011;42438;53.174;6.730;2022-09-25T01:47:01;8.10;;;2.45;;
56541;SDS011;42438;53.174;6.730;2022-09-25T01:49:43;10.85;;;2.25;;
56541;SDS011;42438;53.174;6.730;2022-09-25T01:52:26;4.85;;;1.77;;
56541;SDS011;42438;53.174;6.730;2022-09-25T01:57:38;5.38;;;1.95;;
56541;SDS011;42438;53.174;6.730;2022-09-25T02:00:14;5.68;;;2.10;;
56541;SDS011;42438;53.174;6.730;2022-09-25T02:02:50;4.32;;;1.83;;
56541;SDS011;42438;53.174;6.730;2022-09-25T02:05:29;6.80;;;1.70;;
56541;SDS011;42438;53.174;6.730;2022-09-25T02:08:04;5.63;;;2.35;;
56541;SDS011;42438;53.174;6.730;2022-09-25T02:10:45;5.40;;;2.10;;
56541;SDS011;42438;53.174;6.730;2022-09-25T02:13:18;7.57;;;2.17;;
56541;SDS011;42438;53.174;6.730;2022-09-25T02:15:51;7.15;;;2.25;;
56541;SDS011;42438;53.174;6.730;2022-09-25T02:18:26;5.00;;;1.80;;
56541;SDS011;42438;53.174;6.730;2022-09-25T02:24:12;5.45;;;1.77;;
56541;SDS011;42438;53.174;6.730;2022-09-25T02:26:49;6.47;;;1.80;;
56541;SDS011;42438;53.174;6.730;2022-09-25T02:29:21;5.50;;;1.70;;
56541;SDS011;42438;53.174;6.730;2022-09-25T02:32:01;4.97;;;2.00;;
56541;SDS011;42438;53.174;6.730;2022-09-25T02:34:43;5.03;;;1.80;;
56541;SDS011;42438;53.174;6.730;2022-09-25T02:37:14;4.43;;;1.58;;
56541;SDS011;42438;53.174;6.730;2022-09-25T02:39:47;4.20;;;2.15;;
56541;SDS011;42438;53.174;6.730;2022-09-25T02:48:17;8.43;;;2.95;;
56541;SDS011;42438;53.174;6.730;2022-09-25T02:51:10;6.45;;;2.33;;
56541;SDS011;42438;53.174;6.730;2022-09-25T02:53:51;6.82;;;2.10;;
56541;SDS011;42438;53.174;6.730;2022-09-25T02:56:39;5.10;;;1.70;;
56541;SDS011;42438;53.174;6.730;2022-09-25T02:59:16;4.03;;;1.60;;
56541;SDS011;42438;53.174;6.730;2022-09-25T03:01:50;6.13;;;1.90;;
56541;SDS011;42438;53.174;6.730;2022-09-25T03:04:21;7.38;;;1.90;;
56541;SDS011;42438;53.174;6.730;2022-09-25T03:06:54;3.65;;;1.40;;
56541;SDS011;42438;53.174;6.730;2022-09-25T03:09:26;6.32;;;1.65;;
56541;SDS011;42438;53.174;6.730;2022-09-25T03:12:03;6.30;;;1.90;;
56541;SDS011;42438;53.174;6.730;2022-09-25T03:14:34;5.72;;;1.60;;
56541;SDS011;42438;53.174;6.730;2022-09-25T03:17:05;5.78;;;1.90;;
56541;SDS011;42438;53.174;6.730;2022-09-25T03:19:37;6.43;;;1.90;;
56541;SDS011;42438;53.174;6.730;2022-09-25T03:22:07;6.53;;;2.10;;
56541;SDS011;42438;53.174;6.730;2022-09-25T03:24:38;6.57;;;2.15;;
56541;SDS011;42438;53.174;6.730;2022-09-25T03:27:09;3.28;;;2.10;;
56541;SDS011;42438;53.174;6.730;2022-09-25T03:29:39;4.95;;;1.90;;
56541;SDS011;42438;53.174;6.730;2022-09-25T03:32:11;5.50;;;2.33;;
56541;SDS011;42438;53.174;6.730;2022-09-25T03:34:42;5.13;;;2.30;;
56541;SDS011;42438;53.174;6.730;2022-09-25T03:37:13;6.43;;;1.98;;
56541;SDS011;42438;53.174;6.730;2022-09-25T03:39:43;5.93;;;2.20;;
56541;SDS011;42438;53.174;6.730;2022-09-25T03:42:14;4.85;;;1.90;;
56541;SDS011;42438;53.174;6.730;2022-09-25T03:44:45;7.53;;;2.25;;
56541;SDS011;42438;53.174;6.730;2022-09-25T03:47:16;4.30;;;1.77;;
56541;SDS011;42438;53.174;6.730;2022-09-25T03:49:47;8.70;;;2.45;;
56541;SDS011;42438;53.174;6.730;2022-09-25T03:52:17;5.43;;;1.88;;
56541;SDS011;42438;53.174;6.730;2022-09-25T03:54:49;6.25;;;2.40;;
56541;SDS011;42438;53.174;6.730;2022-09-25T03:57:20;5.20;;;2.08;;
56541;SDS011;42438;53.174;6.730;2022-09-25T03:59:51;5.93;;;1.83;;
56541;SDS011;42438;53.174;6.730;2022-09-25T04:02:21;8.38;;;2.13;;
56541;SDS011;42438;53.174;6.730;2022-09-25T04:04:53;6.55;;;2.58;;
56541;SDS011;42438;53.174;6.730;2022-09-25T04:07:26;6.07;;;2.30;;
56541;SDS011;42438;53.174;6.730;2022-09-25T04:09:57;7.03;;;2.20;;
56541;SDS011;42438;53.174;6.730;2022-09-25T04:12:28;4.05;;;2.35;;
56541;SDS011;42438;53.174;6.730;2022-09-25T04:14:59;3.97;;;2.17;;
56541;SDS011;42438;53.174;6.730;2022-09-25T04:17:30;7.60;;;2.13;;
56541;SDS011;42438;53.174;6.730;2022-09-25T04:20:01;5.45;;;2.30;;
56541;SDS011;42438;53.174;6.730;2022-09-25T04:22:31;5.18;;;2.30;;
56541;SDS011;42438;53.174;6.730;2022-09-25T04:25:02;5.40;;;2.00;;
56541;SDS011;42438;53.174;6.730;2022-09-25T04:27:33;6.80;;;1.83;;
56541;SDS011;42438;53.174;6.730;2022-09-25T04:30:04;6.05;;;2.22;;
56541;SDS011;42438;53.174;6.730;2022-09-25T04:32:35;7.32;;;2.22;;
56541;SDS011;42438;53.174;6.730;2022-09-25T04:35:25;7.30;;;1.92;;
56541;SDS011;42438;53.174;6.730;2022-09-25T04:37:56;6.40;;;2.70;;
56541;SDS011;42438;53.174;6.730;2022-09-25T04:40:27;5.45;;;2.03;;
56541;SDS011;42438;53.174;6.730;2022-09-25T04:42:59;5.20;;;2.00;;
56541;SDS011;42438;53.174;6.730;2022-09-25T04:45:32;6.18;;;2.22;;
56541;SDS011;42438;53.174;6.730;2022-09-25T04:48:06;5.75;;;2.15;;
56541;SDS011;42438;53.174;6.730;2022-09-25T04:50:36;5.78;;;2.35;;
56541;SDS011;42438;53.174;6.730;2022-09-25T04:53:08;9.27;;;2.78;;
56541;SDS011;42438;53.174;6.730;2022-09-25T04:55:38;5.47;;;2.08;;
56541;SDS011;42438;53.174;6.730;2022-09-25T04:58:09;6.47;;;2.60;;
56541;SDS011;42438;53.174;6.730;2022-09-25T05:00:40;5.80;;;2.55;;
56541;SDS011;42438;53.174;6.730;2022-09-25T05:03:11;6.75;;;2.40;;
56541;SDS011;42438;53.174;6.730;2022-09-25T05:05:42;7.57;;;2.22;;
56541;SDS011;42438;53.174;6.730;2022-09-25T05:08:13;5.28;;;2.22;;
56541;SDS011;42438;53.174;6.730;2022-09-25T05:10:43;8.35;;;2.50;;
56541;SDS011;42438;53.174;6.730;2022-09-25T05:13:14;5.85;;;2.28;;
56541;SDS011;42438;53.174;6.730;2022-09-25T05:15:45;5.93;;;2.30;;
56541;SDS011;42438;53.174;6.730;2022-09-25T05:18:20;7.40;;;2.30;;
56541;SDS011;42438;53.174;6.730;2022-09-25T05:20:52;5.47;;;2.05;;
56541;SDS011;42438;53.174;6.730;2022-09-25T05:23:23;4.70;;;2.15;;
56541;SDS011;42438;53.174;6.730;2022-09-25T05:25:54;5.13;;;2.25;;
56541;SDS011;42438;53.174;6.730;2022-09-25T05:30:59;7.65;;;2.50;;
56541;SDS011;42438;53.174;6.730;2022-09-25T05:33:33;5.32;;;2.60;;
56541;SDS011;42438;53.174;6.730;2022-09-25T05:36:05;5.10;;;2.50;;
56541;SDS011;42438;53.174;6.730;2022-09-25T05:38:37;5.03;;;2.17;;
56541;SDS011;42438;53.174;6.730;2022-09-25T05:41:09;5.37;;;2.10;;
56541;SDS011;42438;53.174;6.730;2022-09-25T05:43:41;4.30;;;2.28;;
56541;SDS011;42438;53.174;6.730;2022-09-25T05:46:13;3.83;;;2.05;;
56541;SDS011;42438;53.174;6.730;2022-09-25T05:48:44;6.18;;;2.03;;
56541;SDS011;42438;53.174;6.730;2022-09-25T05:51:15;8.10;;;2.25;;
56541;SDS011;42438;53.174;6.730;2022-09-25T05:53:46;4.60;;;1.98;;
56541;SDS011;42438;53.174;6.730;2022-09-25T05:56:16;4.35;;;2.30;;
56541;SDS011;42438;53.174;6.730;2022-09-25T05:58:47;4.35;;;2.00;;
56541;SDS011;42438;53.174;6.730;2022-09-25T06:01:18;6.70;;;2.33;;
56541;SDS011;42438;53.174;6.730;2022-09-25T06:03:49;7.13;;;2.42;;
56541;SDS011;42438;53.174;6.730;2022-09-25T06:06:19;7.13;;;2.30;;
56541;SDS011;42438;53.174;6.730;2022-09-25T06:08:52;8.63;;;2.63;;
56541;SDS011;42438;53.174;6.730;2022-09-25T06:11:23;6.45;;;2.80;;
56541;SDS011;42438;53.174;6.730;2022-09-25T06:13:54;8.80;;;2.40;;
56541;SDS011;42438;53.174;6.730;2022-09-25T06:16:26;5.60;;;2.35;;
56541;SDS011;42438;53.174;6.730;2022-09-25T06:18:57;4.65;;;2.15;;
56541;SDS011;42438;53.174;6.730;2022-09-25T06:21:28;4.90;;;1.90;;
56541;SDS011;42438;53.174;6.730;2022-09-25T06:23:58;6.20;;;2.38;;
56541;SDS011;42438;53.174;6.730;2022-09-25T06:26:31;5.50;;;2.33;;
56541;SDS011;42438;53.174;6.730;2022-09-25T06:29:02;6.18;;;2.42;;
56541;SDS011;42438;53.174;6.730;2022-09-25T06:31:33;7.63;;;2.55;;
56541;SDS011;42438;53.174;6.730;2022-09-25T06:34:04;5.18;;;2.38;;
56541;SDS011;42438;53.174;6.730;2022-09-25T06:36:35;7.57;;;2.67;;
56541;SDS011;42438;53.174;6.730;2022-09-25T06:39:05;6.43;;;2.80;;
56541;SDS011;42438;53.174;6.730;2022-09-25T06:41:36;5.53;;;2.20;;
56541;SDS011;42438;53.174;6.730;2022-09-25T06:44:07;4.88;;;2.50;;
56541;SDS011;42438;53.174;6.730;2022-09-25T06:46:38;5.72;;;2.38;;
56541;SDS011;42438;53.174;6.730;2022-09-25T06:49:10;4.63;;;2.40;;
56541;SDS011;42438;53.174;6.730;2022-09-25T06:54:12;7.97;;;2.15;;
56541;SDS011;42438;53.174;6.730;2022-09-25T06:56:46;7.60;;;2.50;;
56541;SDS011;42438;53.174;6.730;2022-09-25T06:59:18;7.30;;;2.40;;
56541;SDS011;42438;53.174;6.730;2022-09-25T07:01:49;8.07;;;2.95;;
56541;SDS011;42438;53.174;6.730;2022-09-25T07:04:19;7.53;;;2.92;;
56541;SDS011;42438;53.174;6.730;2022-09-25T07:06:50;9.18;;;2.40;;
56541;SDS011;42438;53.174;6.730;2022-09-25T07:09:25;9.48;;;2.40;;
56541;SDS011;42438;53.174;6.730;2022-09-25T07:11:56;4.55;;;2.35;;
56541;SDS011;42438;53.174;6.730;2022-09-25T07:14:26;7.32;;;2.05;;
56541;SDS011;42438;53.174;6.730;2022-09-25T07:16:57;7.53;;;2.33;;
56541;SDS011;42438;53.174;6.730;2022-09-25T07:19:28;6.38;;;2.17;;
56541;SDS011;42438;53.174;6.730;2022-09-25T07:21:58;6.63;;;2.20;;
56541;SDS011;42438;53.174;6.730;2022-09-25T07:24:29;5.95;;;2.35;;
56541;SDS011;42438;53.174;6.730;2022-09-25T07:27:00;5.22;;;2.40;;
56541;SDS011;42438;53.174;6.730;2022-09-25T07:29:30;7.05;;;2.55;;
56541;SDS011;42438;53.174;6.730;2022-09-25T07:32:01;7.75;;;2.50;;
56541;SDS011;42438;53.174;6.730;2022-09-25T07:34:33;7.50;;;2.40;;
56541;SDS011;42438;53.174;6.730;2022-09-25T07:37:05;5.85;;;2.17;;
56541;SDS011;42438;53.174;6.730;2022-09-25T07:39:36;6.38;;;2.20;;
56541;SDS011;42438;53.174;6.730;2022-09-25T07:42:07;6.97;;;2.42;;
56541;SDS011;42438;53.174;6.730;2022-09-25T07:44:38;7.20;;;1.63;;
56541;SDS011;42438;53.174;6.730;2022-09-25T07:47:09;4.65;;;1.55;;
56541;SDS011;42438;53.174;6.730;2022-09-25T07:49:44;5.10;;;1.77;;
56541;SDS011;42438;53.174;6.730;2022-09-25T07:52:15;5.13;;;1.70;;
56541;SDS011;42438;53.174;6.730;2022-09-25T07:54:46;7.63;;;1.77;;
56541;SDS011;42438;53.174;6.730;2022-09-25T07:57:17;6.05;;;1.42;;
56541;SDS011;42438;53.174;6.730;2022-09-25T07:59:49;5.20;;;1.73;;
56541;SDS011;42438;53.174;6.730;2022-09-25T08:02:20;7.25;;;1.70;;
56541;SDS011;42438;53.174;6.730;2022-09-25T08:04:50;6.35;;;1.58;;
56541;SDS011;42438;53.174;6.730;2022-09-25T08:07:22;4.88;;;1.70;;
56541;SDS011;42438;53.174;6.730;2022-09-25T08:09:52;5.65;;;1.92;;
56541;SDS011;42438;53.174;6.730;2022-09-25T08:12:23;7.35;;;1.67;;
56541;SDS011;42438;53.174;6.730;2022-09-25T08:14:54;4.25;;;1.38;;
56541;SDS011;42438;53.174;6.730;2022-09-25T08:17:26;5.88;;;1.70;;
56541;SDS011;42438;53.174;6.730;2022-09-25T08:20:00;4.10;;;1.73;;
56541;SDS011;42438;53.174;6.730;2022-09-25T08:22:31;6.20;;;1.50;;
56541;SDS011;42438;53.174;6.730;2022-09-25T08:25:03;4.38;;;1.33;;
56541;SDS011;42438;53.174;6.730;2022-09-25T08:27:34;4.75;;;1.38;;
56541;SDS011;42438;53.174;6.730;2022-09-25T08:30:10;7.30;;;1.50;;
56541;SDS011;42438;53.174;6.730;2022-09-25T08:32:42;4.93;;;1.35;;
56541;SDS011;42438;53.174;6.730;2022-09-25T08:35:13;4.60;;;1.20;;
56541;SDS011;42438;53.174;6.730;2022-09-25T08:37:44;5.07;;;1.27;;
56541;SDS011;42438;53.174;6.730;2022-09-25T08:40:16;3.72;;;1.30;;
56541;SDS011;42438;53.174;6.730;2022-09-25T08:42:48;5.32;;;1.20;;
56541;SDS011;42438;53.174;6.730;2022-09-25T08:45:23;4.82;;;1.58;;
56541;SDS011;42438;53.174;6.730;2022-09-25T08:48:23;5.55;;;1.30;;
56541;SDS011;42438;53.174;6.730;2022-09-25T08:51:19;5.45;;;1.58;;
56541;SDS011;42438;53.174;6.730;2022-09-25T08:53:50;6.13;;;1.23;;
56541;SDS011;42438;53.174;6.730;2022-09-25T08:56:21;5.60;;;1.40;;
56541;SDS011;42438;53.174;6.730;2022-09-25T08:58:55;5.65;;;1.17;;
56541;SDS011;42438;53.174;6.730;2022-09-25T09:01:45;4.85;;;1.30;;
56541;SDS011;42438;53.174;6.730;2022-09-25T09:07:04;9.18;;;1.20;;
56541;SDS011;42438;53.174;6.730;2022-09-25T09:09:39;4.90;;;1.00;;
56541;SDS011;42438;53.174;6.730;2022-09-25T09:12:17;2.50;;;0.80;;
56541;SDS011;42438;53.174;6.730;2022-09-25T09:14:54;4.25;;;1.10;;
56541;SDS011;42438;53.174;6.730;2022-09-25T09:17:39;4.32;;;1.27;;
56541;SDS011;42438;53.174;6.730;2022-09-25T09:20:18;3.67;;;1.10;;
56541;SDS011;42438;53.174;6.730;2022-09-25T09:22:57;4.65;;;1.60;;
56541;SDS011;42438;53.174;6.730;2022-09-25T09:36:07;1.80;;;1.02;;
56541;SDS011;42438;53.174;6.730;2022-09-25T09:41:40;3.22;;;1.30;;
56541;SDS011;42438;53.174;6.730;2022-09-25T09:49:38;2.92;;;1.10;;
56541;SDS011;42438;53.174;6.730;2022-09-25T09:52:21;2.30;;;0.95;;
56541;SDS011;42438;53.174;6.730;2022-09-25T09:54:58;2.78;;;1.30;;
56541;SDS011;42438;53.174;6.730;2022-09-25T09:57:56;3.97;;;1.40;;
56541;SDS011;42438;53.174;6.730;2022-09-25T10:00:35;2.53;;;0.88;;
56541;SDS011;42438;53.174;6.730;2022-09-25T10:03:10;3.78;;;0.90;;
56541;SDS011;42438;53.174;6.730;2022-09-25T10:05:48;3.40;;;0.90;;
56541;SDS011;42438;53.174;6.730;2022-09-25T10:08:23;1.63;;;0.90;;
56541;SDS011;42438;53.174;6.730;2022-09-25T10:10:54;3.88;;;1.10;;
56541;SDS011;42438;53.174;6.730;2022-09-25T10:13:31;4.50;;;1.10;;
56541;SDS011;42438;53.174;6.730;2022-09-25T10:21:17;4.32;;;1.15;;
56541;SDS011;42438;53.174;6.730;2022-09-25T10:23:53;2.13;;;1.00;;
56541;SDS011;42438;53.174;6.730;2022-09-25T10:29:00;3.17;;;0.90;;
56541;SDS011;42438;53.174;6.730;2022-09-25T10:31:57;2.50;;;1.10;;
56541;SDS011;42438;53.174;6.730;2022-09-25T10:34:31;4.47;;;1.23;;
56541;SDS011;42438;53.174;6.730;2022-09-25T10:37:12;4.70;;;1.30;;
56541;SDS011;42438;53.174;6.730;2022-09-25T10:40:04;3.35;;;1.13;;
56541;SDS011;42438;53.174;6.730;2022-09-25T10:42:37;3.25;;;1.00;;
56541;SDS011;42438;53.174;6.730;2022-09-25T10:47:55;4.97;;;1.20;;
56541;SDS011;42438;53.174;6.730;2022-09-25T10:50:44;3.63;;;1.08;;
56541;SDS011;42438;53.174;6.730;2022-09-25T10:53:33;4.53;;;1.05;;
56541;SDS011;42438;53.174;6.730;2022-09-25T10:56:05;4.03;;;1.20;;
56541;SDS011;42438;53.174;6.730;2022-09-25T11:01:12;5.50;;;1.35;;
56541;SDS011;42438;53.174;6.730;2022-09-25T11:06:27;8.60;;;1.85;;
56541;SDS011;42438;53.174;6.730;2022-09-25T11:09:03;6.07;;;1.35;;
56541;SDS011;42438;53.174;6.730;2022-09-25T11:11:43;4.70;;;1.10;;
56541;SDS011;42438;53.174;6.730;2022-09-25T11:14:17;5.93;;;1.38;;
56541;SDS011;42438;53.174;6.730;2022-09-25T11:16:52;4.18;;;1.13;;
56541;SDS011;42438;53.174;6.730;2022-09-25T11:19:30;3.50;;;1.00;;
56541;SDS011;42438;53.174;6.730;2022-09-25T11:27:46;5.30;;;1.00;;
56541;SDS011;42438;53.174;6.730;2022-09-25T11:30:23;4.20;;;1.00;;
56541;SDS011;42438;53.174;6.730;2022-09-25T11:38:46;1.63;;;0.73;;
56541;SDS011;42438;53.174;6.730;2022-09-25T11:41:48;1.85;;;0.88;;
56541;SDS011;42438;53.174;6.730;2022-09-25T11:47:16;2.33;;;0.90;;
56541;SDS011;42438;53.174;6.730;2022-09-25T11:49:58;1.25;;;0.77;;
56541;SDS011;42438;53.174;6.730;2022-09-25T11:52:37;1.55;;;0.70;;
56541;SDS011;42438;53.174;6.730;2022-09-25T11:58:15;5.15;;;1.33;;
56541;SDS011;42438;53.174;6.730;2022-09-25T12:10:27;4.00;;;1.33;;
56541;SDS011;42438;53.174;6.730;2022-09-25T12:18:54;3.72;;;1.00;;
56541;SDS011;42438;53.174;6.730;2022-09-25T12:24:40;4.03;;;1.00;;
56541;SDS011;42438;53.174;6.730;2022-09-25T12:30:35;2.00;;;0.90;;
56541;SDS011;42438;53.174;6.730;2022-09-25T12:38:55;4.03;;;1.00;;
56541;SDS011;42438;53.174;6.730;2022-09-25T12:41:42;5.05;;;1.30;;
56541;SDS011;42438;53.174;6.730;2022-09-25T12:46:59;4.90;;;1.30;;
56541;SDS011;42438;53.174;6.730;2022-09-25T12:49:39;3.17;;;1.30;;
56541;SDS011;42438;53.174;6.730;2022-09-25T12:52:14;5.40;;;1.15;;
56541;SDS011;42438;53.174;6.730;2022-09-25T12:54:52;2.90;;;1.02;;
56541;SDS011;42438;53.174;6.730;2022-09-25T13:05:36;5.05;;;2.15;;
56541;SDS011;42438;53.174;6.730;2022-09-25T13:08:24;4.93;;;1.08;;
56541;SDS011;42438;53.174;6.730;2022-09-25T13:11:07;4.90;;;1.20;;
56541;SDS011;42438;53.174;6.730;2022-09-25T13:13:50;7.25;;;1.35;;
56541;SDS011;42438;53.174;6.730;2022-09-25T13:16:24;6.50;;;1.70;;
56541;SDS011;42438;53.174;6.730;2022-09-25T13:19:08;2.42;;;1.00;;
56541;SDS011;42438;53.174;6.730;2022-09-25T13:22:02;3.63;;;1.20;;
56541;SDS011;42438;53.174;6.730;2022-09-25T13:24:42;4.03;;;1.00;;
56541;SDS011;42438;53.174;6.730;2022-09-25T13:27:15;3.90;;;1.33;;
56541;SDS011;42438;53.174;6.730;2022-09-25T13:29:55;2.78;;;1.33;;
56541;SDS011;42438;53.174;6.730;2022-09-25T13:32:30;3.85;;;1.10;;
56541;SDS011;42438;53.174;6.730;2022-09-25T13:35:04;3.97;;;0.80;;
56541;SDS011;42438;53.174;6.730;2022-09-25T13:37:41;1.63;;;0.75;;
56541;SDS011;42438;53.174;6.730;2022-09-25T13:40:21;1.30;;;0.70;;
56541;SDS011;42438;53.174;6.730;2022-09-25T13:43:18;3.63;;;0.82;;
56541;SDS011;42438;53.174;6.730;2022-09-25T13:48:44;2.80;;;0.75;;
56541;SDS011;42438;53.174;6.730;2022-09-25T13:59:18;3.75;;;1.08;;
56541;SDS011;42438;53.174;6.730;2022-09-25T14:01:57;3.42;;;0.82;;
56541;SDS011;42438;53.174;6.730;2022-09-25T14:04:51;1.60;;;0.75;;
56541;SDS011;42438;53.174;6.730;2022-09-25T14:07:23;6.18;;;1.00;;
56541;SDS011;42438;53.174;6.730;2022-09-25T14:12:30;2.42;;;0.63;;
56541;SDS011;42438;53.174;6.730;2022-09-25T14:15:12;2.53;;;0.90;;
56541;SDS011;42438;53.174;6.730;2022-09-25T14:17:58;2.08;;;0.82;;
56541;SDS011;42438;53.174;6.730;2022-09-25T14:20:33;3.22;;;0.88;;
56541;SDS011;42438;53.174;6.730;2022-09-25T14:25:56;4.15;;;1.00;;
56541;SDS011;42438;53.174;6.730;2022-09-25T14:28:44;3.58;;;1.23;;
56541;SDS011;42438;53.174;6.730;2022-09-25T14:31:33;2.83;;;0.80;;
56541;SDS011;42438;53.174;6.730;2022-09-25T14:39:37;4.90;;;0.95;;
56541;SDS011;42438;53.174;6.730;2022-09-25T14:48:13;5.03;;;0.80;;
56541;SDS011;42438;53.174;6.730;2022-09-25T14:50:54;2.53;;;0.80;;
56541;SDS011;42438;53.174;6.730;2022-09-25T14:53:34;3.60;;;1.13;;
56541;SDS011;42438;53.174;6.730;2022-09-25T14:56:08;2.50;;;0.88;;
56541;SDS011;42438;53.174;6.730;2022-09-25T14:58:45;3.55;;;0.80;;
56541;SDS011;42438;53.174;6.730;2022-09-25T15:04:04;1.80;;;1.10;;
56541;SDS011;42438;53.174;6.730;2022-09-25T15:06:38;4.43;;;0.90;;
56541;SDS011;42438;53.174;6.730;2022-09-25T15:12:26;2.22;;;0.65;;
56541;SDS011;42438;53.174;6.730;2022-09-25T15:14:59;4.25;;;0.90;;
56541;SDS011;42438;53.174;6.730;2022-09-25T15:17:42;2.00;;;0.73;;
56541;SDS011;42438;53.174;6.730;2022-09-25T15:20:19;2.50;;;0.80;;
56541;SDS011;42438;53.174;6.730;2022-09-25T15:22:58;5.28;;;0.95;;
56541;SDS011;42438;53.174;6.730;2022-09-25T15:25:41;3.25;;;0.93;;
56541;SDS011;42438;53.174;6.730;2022-09-25T15:28:18;3.67;;;1.00;;
56541;SDS011;42438;53.174;6.730;2022-09-25T15:30:55;5.57;;;0.90;;
56541;SDS011;42438;53.174;6.730;2022-09-25T15:33:29;4.20;;;0.88;;
56541;SDS011;42438;53.174;6.730;2022-09-25T15:36:22;4.53;;;1.00;;
56541;SDS011;42438;53.174;6.730;2022-09-25T15:38:53;2.58;;;0.85;;
56541;SDS011;42438;53.174;6.730;2022-09-25T15:41:27;4.13;;;1.17;;
56541;SDS011;42438;53.174;6.730;2022-09-25T15:46:44;3.33;;;1.00;;
56541;SDS011;42438;53.174;6.730;2022-09-25T15:49:26;2.42;;;0.90;;
56541;SDS011;42438;53.174;6.730;2022-09-25T15:52:03;3.75;;;0.80;;
56541;SDS011;42438;53.174;6.730;2022-09-25T15:54:42;4.75;;;1.00;;
56541;SDS011;42438;53.174;6.730;2022-09-25T15:57:14;4.63;;;1.13;;
56541;SDS011;42438;53.174;6.730;2022-09-25T15:59:52;2.75;;;1.15;;
56541;SDS011;42438;53.174;6.730;2022-09-25T16:02:46;5.63;;;1.10;;
56541;SDS011;42438;53.174;6.730;2022-09-25T16:05:46;2.65;;;1.42;;
56541;SDS011;42438;53.174;6.730;2022-09-25T16:08:34;4.13;;;1.00;;
56541;SDS011;42438;53.174;6.730;2022-09-25T16:11:21;3.80;;;1.02;;
56541;SDS011;42438;53.174;6.730;2022-09-25T16:14:15;3.60;;;1.15;;
56541;SDS011;42438;53.174;6.730;2022-09-25T16:17:00;3.92;;;1.15;;
56541;SDS011;42438;53.174;6.730;2022-09-25T16:19:31;5.07;;;1.20;;
56541;SDS011;42438;53.174;6.730;2022-09-25T16:22:19;4.82;;;0.88;;
56541;SDS011;42438;53.174;6.730;2022-09-25T16:24:52;3.28;;;1.52;;
56541;SDS011;42438;53.174;6.730;2022-09-25T16:27:29;3.10;;;0.82;;
56541;SDS011;42438;53.174;6.730;2022-09-25T16:30:03;4.10;;;1.10;;
56541;SDS011;42438;53.174;6.730;2022-09-25T16:32:34;3.13;;;0.90;;
56541;SDS011;42438;53.174;6.730;2022-09-25T16:35:05;2.47;;;1.10;;
56541;SDS011;42438;53.174;6.730;2022-09-25T16:37:35;2.78;;;0.90;;
56541;SDS011;42438;53.174;6.730;2022-09-25T16:40:20;3.22;;;1.10;;
56541;SDS011;42438;53.174;6.730;2022-09-25T16:42:54;1.52;;;0.85;;
56541;SDS011;42438;53.174;6.730;2022-09-25T16:45:30;2.72;;;1.00;;
56541;SDS011;42438;53.174;6.730;2022-09-25T16:51:04;2.78;;;1.00;;
56541;SDS011;42438;53.174;6.730;2022-09-25T16:53:40;3.33;;;1.00;;
56541;SDS011;42438;53.174;6.730;2022-09-25T16:56:18;3.45;;;0.95;;
56541;SDS011;42438;53.174;6.730;2022-09-25T16:58:51;2.65;;;0.98;;
56541;SDS011;42438;53.174;6.730;2022-09-25T17:01:23;4.22;;;1.23;;
56541;SDS011;42438;53.174;6.730;2022-09-25T17:03:56;4.68;;;1.42;;
56541;SDS011;42438;53.174;6.730;2022-09-25T17:06:28;5.35;;;1.80;;
56541;SDS011;42438;53.174;6.730;2022-09-25T17:09:04;6.80;;;2.78;;
56541;SDS011;42438;53.174;6.730;2022-09-25T17:11:42;8.45;;;2.97;;
56541;SDS011;42438;53.174;6.730;2022-09-25T17:14:19;9.23;;;3.88;;
56541;SDS011;42438;53.174;6.730;2022-09-25T17:16:54;8.93;;;2.97;;
56541;SDS011;42438;53.174;6.730;2022-09-25T17:19:26;5.95;;;2.35;;
56541;SDS011;42438;53.174;6.730;2022-09-25T17:21:57;4.53;;;1.70;;
56541;SDS011;42438;53.174;6.730;2022-09-25T17:24:27;3.92;;;1.52;;
56541;SDS011;42438;53.174;6.730;2022-09-25T17:26:59;3.40;;;1.63;;
56541;SDS011;42438;53.174;6.730;2022-09-25T17:29:31;2.97;;;1.40;;
56541;SDS011;42438;53.174;6.730;2022-09-25T17:32:01;3.13;;;1.23;;
56541;SDS011;42438;53.174;6.730;2022-09-25T17:34:32;3.92;;;1.50;;
56541;SDS011;42438;53.174;6.730;2022-09-25T17:37:03;4.22;;;1.25;;
56541;SDS011;42438;53.174;6.730;2022-09-25T17:39:34;4.32;;;1.50;;
56541;SDS011;42438;53.174;6.730;2022-09-25T17:42:04;5.07;;;1.50;;
56541;SDS011;42438;53.174;6.730;2022-09-25T17:44:35;2.30;;;1.20;;
56541;SDS011;42438;53.174;6.730;2022-09-25T17:47:07;5.15;;;1.20;;
56541;SDS011;42438;53.174;6.730;2022-09-25T17:49:38;3.45;;;1.10;;
56541;SDS011;42438;53.174;6.730;2022-09-25T17:52:11;3.55;;;1.20;;
56541;SDS011;42438;53.174;6.730;2022-09-25T17:54:45;3.10;;;1.27;;
56541;SDS011;42438;53.174;6.730;2022-09-25T17:57:16;5.60;;;1.60;;
56541;SDS011;42438;53.174;6.730;2022-09-25T17:59:47;4.40;;;1.80;;
56541;SDS011;42438;53.174;6.730;2022-09-25T18:02:17;4.13;;;1.50;;
56541;SDS011;42438;53.174;6.730;2022-09-25T18:04:48;4.60;;;1.58;;
56541;SDS011;42438;53.174;6.730;2022-09-25T18:07:19;4.20;;;1.75;;
56541;SDS011;42438;53.174;6.730;2022-09-25T18:09:49;3.92;;;1.65;;
56541;SDS011;42438;53.174;6.730;2022-09-25T18:12:20;5.28;;;1.88;;
56541;SDS011;42438;53.174;6.730;2022-09-25T18:14:51;3.72;;;2.00;;
56541;SDS011;42438;53.174;6.730;2022-09-25T18:17:22;4.35;;;2.10;;
56541;SDS011;42438;53.174;6.730;2022-09-25T18:19:52;4.25;;;1.70;;